sensor_id;sensor_type;location;lat;lon;timestamp;pressure;altitude;pressure_sealevel;temperature;humidity
32747;BME280;19118;50.860;13.662;2023-11-19T00:00:50;96850.00;;;6.61;100.00
32747;BME280;19118;50.860;13.662;2023-11-19T00:05:51;96837.97;;;6.44;100.00
32747;BME280;19118;50.860;13.662;2023-11-19T00:10:52;96800.28;;;6.37;100.00
32747;BME280;19118;50.860;13.662;2023-11-19T00:15:52;96783.13;;;6.49;100.00
32747;BME280;19118;50.860;13.662;2023-11-19T00:20:53;96776.34;;;6.32;100.00
32747;BME280;19118;50.860;13.662;2023-11-19T00:25:53;96756.28;;;6.39;100.00
32747;BME280;19118;50.860;13.662;2023-11-19T00:30:53;96726.16;;;6.79;100.00
32747;BME280;19118;50.860;13.662;2023-11-19T00:35:54;96712.22;;;6.79;100.00
32747;BME280;19118;50.860;13.662;2023-11-19T00:40:55;96707.50;;;6.74;100.00
32747;BME280;19118;50.860;13.662;2023-11-19T00:45:56;96697.97;;;6.88;100.00
32747;BME280;19118;50.860;13.662;2023-11-19T00:50:56;96680.78;;;6.70;100.00
32747;BME280;19118;50.860;13.662;2023-11-19T00:55:56;96660.31;;;6.81;100.00
32747;BME280;19118;50.860;13.662;2023-11-19T01:00:57;96673.34;;;6.89;100.00
32747;BME280;19118;50.860;13.662;2023-11-19T01:05:58;96647.59;;;6.84;100.00
32747;BME280;19118;50.860;13.662;2023-11-19T01:10:59;96653.59;;;6.93;100.00
32747;BME280;19118;50.860;13.662;2023-11-19T01:16:00;96623.31;;;6.97;100.00
32747;BME280;19118;50.860;13.662;2023-11-19T01:21:03;96618.47;;;7.00;100.00
32747;BME280;19118;50.860;13.662;2023-11-19T01:26:03;96610.25;;;6.89;100.00
32747;BME280;19118;50.860;13.662;2023-11-19T01:31:05;96606.13;;;6.80;100.00
32747;BME280;19118;50.860;13.662;2023-11-19T01:36:09;96592.84;;;6.88;100.00
32747;BME280;19118;50.860;13.662;2023-11-19T01:41:09;96581.25;;;6.97;100.00
32747;BME280;19118;50.860;13.662;2023-11-19T01:46:09;96580.00;;;6.78;100.00
32747;BME280;19118;50.860;13.662;2023-11-19T01:51:10;96581.00;;;6.77;100.00
32747;BME280;19118;50.860;13.662;2023-11-19T01:56:13;96569.19;;;6.88;100.00
32747;BME280;19118;50.860;13.662;2023-11-19T02:01:14;96564.72;;;6.52;100.00
32747;BME280;19118;50.860;13.662;2023-11-19T02:06:15;96555.00;;;6.67;100.00
32747;BME280;19118;50.860;13.662;2023-11-19T02:11:15;96536.50;;;6.39;100.00
32747;BME280;19118;50.860;13.662;2023-11-19T02:16:16;96520.09;;;6.37;100.00
32747;BME280;19118;50.860;13.662;2023-11-19T02:21:16;96508.84;;;6.58;100.00
32747;BME280;19118;50.860;13.662;2023-11-19T02:26:25;96479.56;;;6.61;100.00
32747;BME280;19118;50.860;13.662;2023-11-19T02:31:28;96496.25;;;6.54;100.00
32747;BME280;19118;50.860;13.662;2023-11-19T02:36:29;96482.44;;;6.81;100.00
32747;BME280;19118;50.860;13.662;2023-11-19T02:41:29;96457.81;;;6.89;100.00
32747;BME280;19118;50.860;13.662;2023-11-19T02:46:30;96452.31;;;6.62;100.00
32747;BME280;19118;50.860;13.662;2023-11-19T02:51:31;96441.22;;;6.67;100.00
32747;BME280;19118;50.860;13.662;2023-11-19T02:56:32;96445.28;;;6.48;100.00
32747;BME280;19118;50.860;13.662;2023-11-19T03:01:36;96431.78;;;6.72;100.00
32747;BME280;19118;50.860;13.662;2023-11-19T03:06:37;96405.75;;;6.99;100.00
32747;BME280;19118;50.860;13.662;2023-11-19T03:11:38;96399.25;;;6.95;100.00
32747;BME280;19118;50.860;13.662;2023-11-19T03:16:39;96395.16;;;7.14;100.00
32747;BME280;19118;50.860;13.662;2023-11-19T03:21:39;96385.34;;;7.29;100.00
32747;BME280;19118;50.860;13.662;2023-11-19T03:26:39;96376.09;;;7.05;100.00
32747;BME280;19118;50.860;13.662;2023-11-19T03:31:43;96401.97;;;6.80;100.00
32747;BME280;19118;50.860;13.662;2023-11-19T03:36:44;96391.44;;;7.29;100.00
32747;BME280;19118;50.860;13.662;2023-11-19T03:41:45;96357.16;;;7.16;100.00
32747;BME280;19118;50.860;13.662;2023-11-19T03:46:47;96336.59;;;7.68;100.00
32747;BME280;19118;50.860;13.662;2023-11-19T03:51:47;96334.09;;;7.53;100.00
32747;BME280;19118;50.860;13.662;2023-11-19T03:56:47;96318.53;;;7.51;100.00
32747;BME280;19118;50.860;13.662;2023-11-19T04:01:48;96322.88;;;7.79;100.00
32747;BME280;19118;50.860;13.662;2023-11-19T04:06:48;96310.09;;;7.69;100.00
32747;BME280;19118;50.860;13.662;2023-11-19T04:11:49;96316.34;;;7.62;100.00
32747;BME280;19118;50.860;13.662;2023-11-19T04:16:49;96298.78;;;7.75;100.00
32747;BME280;19118;50.860;13.662;2023-11-19T04:21:50;96275.47;;;7.59;100.00
32747;BME280;19118;50.860;13.662;2023-11-19T04:26:50;96260.50;;;7.66;100.00
32747;BME280;19118;50.860;13.662;2023-11-19T04:31:50;96239.28;;;7.87;100.00
32747;BME280;19118;50.860;13.662;2023-11-19T04:36:51;96247.44;;;7.45;100.00
32747;BME280;19118;50.860;13.662;2023-11-19T04:41:51;96260.00;;;7.43;100.00
32747;BME280;19118;50.860;13.662;2023-11-19T04:46:53;96262.22;;;7.94;100.00
32747;BME280;19118;50.860;13.662;2023-11-19T04:51:53;96247.22;;;8.01;100.00
32747;BME280;19118;50.860;13.662;2023-11-19T04:56:53;96252.13;;;8.17;100.00
32747;BME280;19118;50.860;13.662;2023-11-19T05:01:54;96238.31;;;8.02;100.00
32747;BME280;19118;50.860;13.662;2023-11-19T05:06:54;96233.00;;;7.75;100.00
32747;BME280;19118;50.860;13.662;2023-11-19T05:11:55;96240.41;;;7.52;100.00
32747;BME280;19118;50.860;13.662;2023-11-19T05:16:55;96219.22;;;7.73;100.00
32747;BME280;19118;50.860;13.662;2023-11-19T05:21:55;96209.94;;;8.04;100.00
32747;BME280;19118;50.860;13.662;2023-11-19T05:26:56;96193.38;;;8.16;100.00
32747;BME280;19118;50.860;13.662;2023-11-19T05:31:56;96194.19;;;8.30;100.00
32747;BME280;19118;50.860;13.662;2023-11-19T05:36:56;96201.91;;;8.45;100.00
32747;BME280;19118;50.860;13.662;2023-11-19T05:41:57;96189.75;;;8.37;100.00
32747;BME280;19118;50.860;13.662;2023-11-19T05:46:58;96201.91;;;8.52;100.00
32747;BME280;19118;50.860;13.662;2023-11-19T05:51:58;96171.09;;;8.19;100.00
32747;BME280;19118;50.860;13.662;2023-11-19T05:56:59;96191.75;;;8.49;100.00
32747;BME280;19118;50.860;13.662;2023-11-19T06:01:59;96189.75;;;8.51;100.00
32747;BME280;19118;50.860;13.662;2023-11-19T06:06:59;96165.59;;;8.67;100.00
32747;BME280;19118;50.860;13.662;2023-11-19T06:12:00;96171.50;;;8.56;100.00
32747;BME280;19118;50.860;13.662;2023-11-19T06:17:02;96168.81;;;8.69;100.00
32747;BME280;19118;50.860;13.662;2023-11-19T06:22:04;96185.63;;;8.81;100.00
32747;BME280;19118;50.860;13.662;2023-11-19T06:27:05;96157.69;;;8.73;100.00
32747;BME280;19118;50.860;13.662;2023-11-19T06:32:05;96157.59;;;9.07;100.00
32747;BME280;19118;50.860;13.662;2023-11-19T06:37:06;96135.72;;;9.38;100.00
32747;BME280;19118;50.860;13.662;2023-11-19T06:42:09;96139.81;;;9.27;100.00
32747;BME280;19118;50.860;13.662;2023-11-19T06:47:09;96142.09;;;9.17;100.00
32747;BME280;19118;50.860;13.662;2023-11-19T06:52:10;96155.91;;;9.19;100.00
32747;BME280;19118;50.860;13.662;2023-11-19T06:57:11;96148.81;;;9.57;100.00
32747;BME280;19118;50.860;13.662;2023-11-19T07:02:11;96146.97;;;9.65;100.00
32747;BME280;19118;50.860;13.662;2023-11-19T07:07:12;96148.47;;;9.79;100.00
32747;BME280;19118;50.860;13.662;2023-11-19T07:12:15;96143.19;;;9.79;100.00
32747;BME280;19118;50.860;13.662;2023-11-19T07:17:15;96150.34;;;9.72;100.00
32747;BME280;19118;50.860;13.662;2023-11-19T07:22:15;96173.50;;;9.70;100.00
32747;BME280;19118;50.860;13.662;2023-11-19T07:27:16;96186.91;;;9.75;100.00
32747;BME280;19118;50.860;13.662;2023-11-19T07:32:17;96182.72;;;10.24;100.00
32747;BME280;19118;50.860;13.662;2023-11-19T07:37:18;96201.41;;;9.90;100.00
32747;BME280;19118;50.860;13.662;2023-11-19T07:42:18;96203.34;;;10.08;100.00
32747;BME280;19118;50.860;13.662;2023-11-19T07:47:18;96206.38;;;10.43;100.00
32747;BME280;19118;50.860;13.662;2023-11-19T07:52:19;96197.31;;;9.95;100.00
32747;BME280;19118;50.860;13.662;2023-11-19T07:57:19;96208.69;;;10.58;100.00
32747;BME280;19118;50.860;13.662;2023-11-19T08:02:20;96207.25;;;10.81;100.00
32747;BME280;19118;50.860;13.662;2023-11-19T08:07:21;96209.13;;;10.73;100.00
32747;BME280;19118;50.860;13.662;2023-11-19T08:12:22;96208.00;;;10.88;100.00
32747;BME280;19118;50.860;13.662;2023-11-19T08:17:23;96205.06;;;11.32;100.00
32747;BME280;19118;50.860;13.662;2023-11-19T08:22:23;96211.22;;;11.63;100.00
32747;BME280;19118;50.860;13.662;2023-11-19T08:27:24;96212.25;;;11.62;100.00
32747;BME280;19118;50.860;13.662;2023-11-19T08:32:27;96204.41;;;11.55;100.00
32747;BME280;19118;50.860;13.662;2023-11-19T08:37:27;96196.16;;;11.93;100.00
32747;BME280;19118;50.860;13.662;2023-11-19T08:42:28;96190.22;;;12.10;100.00
32747;BME280;19118;50.860;13.662;2023-11-19T08:47:28;96194.56;;;11.92;100.00
32747;BME280;19118;50.860;13.662;2023-11-19T08:52:29;96198.56;;;12.25;100.00
32747;BME280;19118;50.860;13.662;2023-11-19T08:57:30;96216.44;;;12.00;100.00
32747;BME280;19118;50.860;13.662;2023-11-19T09:02:30;96210.44;;;12.34;100.00
32747;BME280;19118;50.860;13.662;2023-11-19T09:07:32;96228.13;;;12.75;100.00
32747;BME280;19118;50.860;13.662;2023-11-19T09:12:33;96214.75;;;12.59;100.00
32747;BME280;19118;50.860;13.662;2023-11-19T09:17:33;96203.09;;;12.36;100.00
32747;BME280;19118;50.860;13.662;2023-11-19T09:22:34;96206.81;;;12.94;100.00
32747;BME280;19118;50.860;13.662;2023-11-19T09:27:35;96199.75;;;12.99;100.00
32747;BME280;19118;50.860;13.662;2023-11-19T09:32:35;96204.47;;;13.32;100.00
32747;BME280;19118;50.860;13.662;2023-11-19T09:37:35;96198.59;;;12.95;100.00
32747;BME280;19118;50.860;13.662;2023-11-19T09:42:45;96215.63;;;13.46;100.00
32747;BME280;19118;50.860;13.662;2023-11-19T09:47:46;96218.69;;;13.15;100.00
32747;BME280;19118;50.860;13.662;2023-11-19T09:52:47;96218.31;;;12.99;100.00
32747;BME280;19118;50.860;13.662;2023-11-19T09:57:49;96218.22;;;13.18;100.00
32747;BME280;19118;50.860;13.662;2023-11-19T10:02:51;96229.19;;;13.21;100.00
32747;BME280;19118;50.860;13.662;2023-11-19T10:07:52;96226.03;;;13.88;100.00
32747;BME280;19118;50.860;13.662;2023-11-19T10:12:53;96223.84;;;13.85;100.00
32747;BME280;19118;50.860;13.662;2023-11-19T10:17:57;96233.88;;;13.54;100.00
32747;BME280;19118;50.860;13.662;2023-11-19T10:22:57;96236.69;;;13.76;100.00
32747;BME280;19118;50.860;13.662;2023-11-19T10:27:58;96231.44;;;13.64;100.00
32747;BME280;19118;50.860;13.662;2023-11-19T10:33:12;96236.94;;;13.75;100.00
32747;BME280;19118;50.860;13.662;2023-11-19T10:38:17;96231.91;;;13.90;100.00
32747;BME280;19118;50.860;13.662;2023-11-19T10:43:26;96217.53;;;14.03;100.00
32747;BME280;19118;50.860;13.662;2023-11-19T10:48:27;96214.34;;;14.17;100.00
32747;BME280;19118;50.860;13.662;2023-11-19T10:53:28;96219.94;;;13.76;100.00
32747;BME280;19118;50.860;13.662;2023-11-19T10:58:32;96223.84;;;13.45;100.00
32747;BME280;19118;50.860;13.662;2023-11-19T11:03:39;96221.22;;;13.33;100.00
32747;BME280;19118;50.860;13.662;2023-11-19T11:08:40;96220.28;;;13.39;100.00
32747;BME280;19118;50.860;13.662;2023-11-19T11:13:42;96219.63;;;13.72;100.00
32747;BME280;19118;50.860;13.662;2023-11-19T11:18:43;96225.97;;;13.99;100.00
32747;BME280;19118;50.860;13.662;2023-11-19T11:23:52;96219.06;;;13.58;100.00
32747;BME280;19118;50.860;13.662;2023-11-19T11:29:16;96224.34;;;13.82;100.00
32747;BME280;19118;50.860;13.662;2023-11-19T11:39:28;96229.41;;;13.83;100.00
32747;BME280;19118;50.860;13.662;2023-11-19T11:50:18;96228.50;;;13.37;100.00
32747;BME280;19118;50.860;13.662;2023-11-19T11:55:19;96225.06;;;13.65;100.00
32747;BME280;19118;50.860;13.662;2023-11-19T12:00:29;96216.63;;;13.97;100.00
32747;BME280;19118;50.860;13.662;2023-11-19T12:05:30;96204.38;;;13.67;100.00
32747;BME280;19118;50.860;13.662;2023-11-19T12:10:45;96192.06;;;13.61;100.00
32747;BME280;19118;50.860;13.662;2023-11-19T12:20:57;96175.75;;;13.58;100.00
32747;BME280;19118;50.860;13.662;2023-11-19T12:26:00;96149.72;;;13.72;100.00
32747;BME280;19118;50.860;13.662;2023-11-19T12:31:10;96149.72;;;13.72;100.00
32747;BME280;19118;50.860;13.662;2023-11-19T12:36:10;96141.06;;;13.93;100.00
32747;BME280;19118;50.860;13.662;2023-11-19T12:41:10;96149.44;;;13.85;100.00
32747;BME280;19118;50.860;13.662;2023-11-19T12:51:19;96143.16;;;13.91;100.00
32747;BME280;19118;50.860;13.662;2023-11-19T12:56:21;96151.84;;;13.86;100.00
32747;BME280;19118;50.860;13.662;2023-11-19T13:01:21;96145.84;;;13.62;100.00
32747;BME280;19118;50.860;13.662;2023-11-19T13:06:22;96143.94;;;13.75;100.00
32747;BME280;19118;50.860;13.662;2023-11-19T13:11:33;96155.19;;;13.65;100.00
32747;BME280;19118;50.860;13.662;2023-11-19T13:16:36;96152.84;;;13.40;100.00
32747;BME280;19118;50.860;13.662;2023-11-19T13:21:36;96153.00;;;13.22;100.00
32747;BME280;19118;50.860;13.662;2023-11-19T13:26:38;96149.44;;;13.04;100.00
32747;BME280;19118;50.860;13.662;2023-11-19T13:31:38;96155.19;;;13.25;100.00
32747;BME280;19118;50.860;13.662;2023-11-19T13:36:39;96144.69;;;13.18;100.00
32747;BME280;19118;50.860;13.662;2023-11-19T13:41:39;96135.78;;;13.12;100.00
32747;BME280;19118;50.860;13.662;2023-11-19T13:46:40;96155.41;;;13.11;100.00
32747;BME280;19118;50.860;13.662;2023-11-19T13:51:40;96163.44;;;12.65;100.00
32747;BME280;19118;50.860;13.662;2023-11-19T13:56:41;96164.13;;;12.60;100.00
32747;BME280;19118;50.860;13.662;2023-11-19T14:01:41;96170.47;;;12.71;100.00
32747;BME280;19118;50.860;13.662;2023-11-19T14:06:45;96183.03;;;12.64;100.00
32747;BME280;19118;50.860;13.662;2023-11-19T14:11:45;96177.63;;;12.59;100.00
32747;BME280;19118;50.860;13.662;2023-11-19T14:16:45;96181.44;;;12.63;100.00
32747;BME280;19118;50.860;13.662;2023-11-19T14:21:46;96178.97;;;12.26;100.00
32747;BME280;19118;50.860;13.662;2023-11-19T14:26:47;96175.28;;;12.27;100.00
32747;BME280;19118;50.860;13.662;2023-11-19T14:31:48;96174.94;;;12.23;100.00
32747;BME280;19118;50.860;13.662;2023-11-19T14:36:49;96175.06;;;12.29;100.00
32747;BME280;19118;50.860;13.662;2023-11-19T14:41:50;96183.22;;;12.15;100.00
32747;BME280;19118;50.860;13.662;2023-11-19T14:46:50;96165.47;;;12.16;100.00
32747;BME280;19118;50.860;13.662;2023-11-19T14:51:51;96178.94;;;12.03;100.00
32747;BME280;19118;50.860;13.662;2023-11-19T14:56:51;96184.28;;;12.26;100.00
32747;BME280;19118;50.860;13.662;2023-11-19T15:01:52;96160.59;;;12.01;100.00
32747;BME280;19118;50.860;13.662;2023-11-19T15:06:52;96158.06;;;11.46;100.00
32747;BME280;19118;50.860;13.662;2023-11-19T15:11:56;96165.34;;;11.51;100.00
32747;BME280;19118;50.860;13.662;2023-11-19T15:16:58;96163.31;;;11.16;100.00
32747;BME280;19118;50.860;13.662;2023-11-19T15:21:58;96164.94;;;11.17;100.00
32747;BME280;19118;50.860;13.662;2023-11-19T15:26:59;96160.97;;;11.08;100.00
32747;BME280;19118;50.860;13.662;2023-11-19T15:31:59;96165.88;;;11.41;100.00
32747;BME280;19118;50.860;13.662;2023-11-19T15:36:59;96168.75;;;11.40;100.00
32747;BME280;19118;50.860;13.662;2023-11-19T15:42:00;96172.94;;;11.29;100.00
32747;BME280;19118;50.860;13.662;2023-11-19T15:47:01;96178.91;;;11.24;100.00
32747;BME280;19118;50.860;13.662;2023-11-19T15:52:01;96179.56;;;11.20;100.00
32747;BME280;19118;50.860;13.662;2023-11-19T15:57:01;96170.66;;;11.32;100.00
32747;BME280;19118;50.860;13.662;2023-11-19T16:02:02;96175.44;;;11.05;100.00
32747;BME280;19118;50.860;13.662;2023-11-19T16:07:02;96170.03;;;11.00;100.00
32747;BME280;19118;50.860;13.662;2023-11-19T16:12:03;96178.31;;;11.04;100.00
32747;BME280;19118;50.860;13.662;2023-11-19T16:17:03;96174.94;;;10.97;100.00
32747;BME280;19118;50.860;13.662;2023-11-19T16:22:04;96169.13;;;11.06;100.00
32747;BME280;19118;50.860;13.662;2023-11-19T16:27:09;96170.97;;;10.88;100.00
32747;BME280;19118;50.860;13.662;2023-11-19T16:32:10;96173.00;;;10.67;100.00
32747;BME280;19118;50.860;13.662;2023-11-19T16:37:10;96182.50;;;10.50;100.00
32747;BME280;19118;50.860;13.662;2023-11-19T16:42:10;96181.78;;;10.61;100.00
32747;BME280;19118;50.860;13.662;2023-11-19T16:47:11;96188.38;;;10.52;100.00
32747;BME280;19118;50.860;13.662;2023-11-19T16:52:11;96189.72;;;10.61;100.00
32747;BME280;19118;50.860;13.662;2023-11-19T16:57:13;96194.38;;;10.66;100.00
32747;BME280;19118;50.860;13.662;2023-11-19T17:02:14;96194.38;;;10.66;100.00
32747;BME280;19118;50.860;13.662;2023-11-19T17:07:15;96195.19;;;10.66;100.00
32747;BME280;19118;50.860;13.662;2023-11-19T17:12:15;96192.41;;;10.79;100.00
32747;BME280;19118;50.860;13.662;2023-11-19T17:17:15;96185.28;;;10.80;100.00
32747;BME280;19118;50.860;13.662;2023-11-19T17:22:16;96193.22;;;10.98;100.00
32747;BME280;19118;50.860;13.662;2023-11-19T17:27:16;96188.47;;;10.89;100.00
32747;BME280;19118;50.860;13.662;2023-11-19T17:32:16;96193.44;;;10.97;100.00
32747;BME280;19118;50.860;13.662;2023-11-19T17:37:17;96183.97;;;10.89;100.00
32747;BME280;19118;50.860;13.662;2023-11-19T17:42:17;96196.25;;;11.20;100.00
32747;BME280;19118;50.860;13.662;2023-11-19T17:47:19;96198.09;;;11.01;100.00
32747;BME280;19118;50.860;13.662;2023-11-19T17:52:20;96213.66;;;11.28;100.00
32747;BME280;19118;50.860;13.662;2023-11-19T17:57:21;96212.13;;;11.20;100.00
32747;BME280;19118;50.860;13.662;2023-11-19T18:02:21;96208.88;;;11.18;100.00
32747;BME280;19118;50.860;13.662;2023-11-19T18:07:22;96213.31;;;11.24;100.00
32747;BME280;19118;50.860;13.662;2023-11-19T18:12:22;96215.50;;;11.46;100.00
32747;BME280;19118;50.860;13.662;2023-11-19T18:17:22;96216.53;;;11.26;100.00
32747;BME280;19118;50.860;13.662;2023-11-19T18:22:23;96198.22;;;11.06;100.00
32747;BME280;19118;50.860;13.662;2023-11-19T18:27:24;96199.47;;;10.86;100.00
32747;BME280;19118;50.860;13.662;2023-11-19T18:32:24;96207.44;;;10.61;100.00
32747;BME280;19118;50.860;13.662;2023-11-19T18:37:25;96201.09;;;10.43;100.00
32747;BME280;19118;50.860;13.662;2023-11-19T18:42:25;96216.06;;;10.49;100.00
32747;BME280;19118;50.860;13.662;2023-11-19T18:47:25;96220.06;;;10.34;100.00
32747;BME280;19118;50.860;13.662;2023-11-19T18:52:26;96224.00;;;10.25;100.00
32747;BME280;19118;50.860;13.662;2023-11-19T18:57:26;96225.34;;;10.34;100.00
32747;BME280;19118;50.860;13.662;2023-11-19T19:02:27;96232.50;;;10.27;100.00
32747;BME280;19118;50.860;13.662;2023-11-19T19:07:28;96218.34;;;10.14;100.00
32747;BME280;19118;50.860;13.662;2023-11-19T19:12:28;96222.91;;;10.57;100.00
32747;BME280;19118;50.860;13.662;2023-11-19T19:17:29;96217.56;;;10.64;100.00
32747;BME280;19118;50.860;13.662;2023-11-19T19:22:29;96214.66;;;10.72;100.00
32747;BME280;19118;50.860;13.662;2023-11-19T19:27:29;96210.22;;;10.91;100.00
32747;BME280;19118;50.860;13.662;2023-11-19T19:32:30;96220.25;;;10.82;100.00
32747;BME280;19118;50.860;13.662;2023-11-19T19:37:30;96221.88;;;10.83;100.00
32747;BME280;19118;50.860;13.662;2023-11-19T19:42:31;96223.25;;;10.67;100.00
32747;BME280;19118;50.860;13.662;2023-11-19T19:47:31;96233.56;;;10.94;100.00
32747;BME280;19118;50.860;13.662;2023-11-19T19:52:31;96245.31;;;10.98;100.00
32747;BME280;19118;50.860;13.662;2023-11-19T19:57:33;96240.78;;;11.05;100.00
32747;BME280;19118;50.860;13.662;2023-11-19T20:02:33;96238.16;;;11.23;100.00
32747;BME280;19118;50.860;13.662;2023-11-19T20:07:34;96240.78;;;11.05;100.00
32747;BME280;19118;50.860;13.662;2023-11-19T20:12:34;96251.38;;;11.05;100.00
32747;BME280;19118;50.860;13.662;2023-11-19T20:17:35;96243.47;;;11.23;100.00
32747;BME280;19118;50.860;13.662;2023-11-19T20:22:35;96243.22;;;11.06;100.00
32747;BME280;19118;50.860;13.662;2023-11-19T20:27:36;96233.59;;;11.30;100.00
32747;BME280;19118;50.860;13.662;2023-11-19T20:32:36;96250.19;;;11.19;100.00
32747;BME280;19118;50.860;13.662;2023-11-19T20:37:37;96249.78;;;11.41;100.00
32747;BME280;19118;50.860;13.662;2023-11-19T20:42:38;96245.66;;;11.45;100.00
32747;BME280;19118;50.860;13.662;2023-11-19T20:47:39;96251.91;;;11.69;100.00
32747;BME280;19118;50.860;13.662;2023-11-19T20:52:39;96258.72;;;11.76;100.00
32747;BME280;19118;50.860;13.662;2023-11-19T20:57:40;96245.88;;;11.61;100.00
32747;BME280;19118;50.860;13.662;2023-11-19T21:02:40;96246.47;;;11.82;100.00
32747;BME280;19118;50.860;13.662;2023-11-19T21:07:40;96237.97;;;11.73;100.00
32747;BME280;19118;50.860;13.662;2023-11-19T21:12:41;96249.72;;;11.77;100.00
32747;BME280;19118;50.860;13.662;2023-11-19T21:17:41;96240.06;;;11.53;100.00
32747;BME280;19118;50.860;13.662;2023-11-19T21:22:42;96229.34;;;11.48;100.00
32747;BME280;19118;50.860;13.662;2023-11-19T21:27:42;96223.91;;;11.24;100.00
32747;BME280;19118;50.860;13.662;2023-11-19T21:32:43;96233.75;;;11.35;100.00
32747;BME280;19118;50.860;13.662;2023-11-19T21:37:44;96228.53;;;11.29;100.00
32747;BME280;19118;50.860;13.662;2023-11-19T21:42:44;96216.25;;;11.34;100.00
32747;BME280;19118;50.860;13.662;2023-11-19T21:47:44;96210.81;;;11.29;100.00
32747;BME280;19118;50.860;13.662;2023-11-19T21:52:45;96220.66;;;11.22;100.00
32747;BME280;19118;50.860;13.662;2023-11-19T21:57:45;96206.25;;;11.18;100.00
32747;BME280;19118;50.860;13.662;2023-11-19T22:02:45;96197.28;;;11.37;100.00
32747;BME280;19118;50.860;13.662;2023-11-19T22:07:46;96200.53;;;11.03;100.00
32747;BME280;19118;50.860;13.662;2023-11-19T22:12:47;96196.41;;;11.07;100.00
32747;BME280;19118;50.860;13.662;2023-11-19T22:17:47;96208.09;;;11.18;100.00
32747;BME280;19118;50.860;13.662;2023-11-19T22:22:49;96203.44;;;11.50;100.00
32747;BME280;19118;50.860;13.662;2023-11-19T22:27:51;96196.22;;;11.57;100.00
32747;BME280;19118;50.860;13.662;2023-11-19T22:32:51;96190.78;;;11.52;100.00
32747;BME280;19118;50.860;13.662;2023-11-19T22:37:52;96184.28;;;11.66;100.00
32747;BME280;19118;50.860;13.662;2023-11-19T22:42:52;96177.34;;;11.83;100.00
32747;BME280;19118;50.860;13.662;2023-11-19T22:47:52;96172.53;;;11.62;100.00
32747;BME280;19118;50.860;13.662;2023-11-19T22:52:53;96181.22;;;11.51;100.00
32747;BME280;19118;50.860;13.662;2023-11-19T22:57:53;96180.97;;;11.71;100.00
32747;BME280;19118;50.860;13.662;2023-11-19T23:02:55;96190.03;;;11.63;100.00
32747;BME280;19118;50.860;13.662;2023-11-19T23:07:56;96179.72;;;11.55;100.00
32747;BME280;19118;50.860;13.662;2023-11-19T23:12:57;96182.25;;;11.50;100.00
32747;BME280;19118;50.860;13.662;2023-11-19T23:17:58;96175.28;;;11.55;100.00
32747;BME280;19118;50.860;13.662;2023-11-19T23:23:00;96183.75;;;11.46;100.00
32747;BME280;19118;50.860;13.662;2023-11-19T23:28:00;96183.00;;;11.38;100.00
32747;BME280;19118;50.860;13.662;2023-11-19T23:33:01;96191.69;;;11.27;100.00
32747;BME280;19118;50.860;13.662;2023-11-19T23:38:01;96185.53;;;11.33;100.00
32747;BME280;19118;50.860;13.662;2023-11-19T23:43:03;96179.44;;;11.33;100.00
32747;BME280;19118;50.860;13.662;2023-11-19T23:48:04;96178.81;;;10.94;100.00
32747;BME280;19118;50.860;13.662;2023-11-19T23:53:04;96175.47;;;11.24;100.00
32747;BME280;19118;50.860;13.662;2023-11-19T23:58:09;96178.63;;;11.14;100.00
